Skip Navigation Links
NOAA logo - Click to go to the NOAA homepage
NOAA's National Weather Service
Alaska Aviation Weather Unit
  NWS logo - Click to go to the NWS homepage
Left Navbar Graphic     17 AKDT = 01 GMT

   
NOAA is celebrating 200 years of science, service, and stewardship. Visit the NOAA 200th celebration Web site to learn more.
USA.gov is the U.S. Government's official Web portal to all Federal, state and local government Web resources and services.
Facebook
NWS on Facebook

Important Change Regarding the AAWU Web Presence

 

Over the last several months, the AAWU has been working to navigate its webpages to a nationally supported server. Security, as well as other needs, have necessitated the change.  In the process, we have made an effort to enhance the functionality of our website, as well as some of our products. As of June 27, 2017, aawu.arh.noaa.gov will be discontinued. The new AAWU web address is weather.gov/aawu. It is now live and will run in-parallel with the old site until it is discontinued. Please send any feedback or questions regarding the new webpages to nws.ar.aawu.webauthors@noaa.gov.  Thank you for your patience during this time of transition.
AAWU Home :: Display TAF Add Bookmark
METAR PACM 251956Z AUTO 10014G18KT 10SM SCT024 OVC031 12/07 A2993 RMK
     AO2 SLP130 T01220067=

SPECI PACM 252009Z AUTO 10016G21KT 10SM BKN024 OVC031 12/07 A2992 RMK
     AO2=

SPECI PACM 252052Z AUTO 11016G20KT 10SM SCT024 OVC033 13/07 A2991 RMK
     AO2=

METAR PACM 252056Z AUTO 10016G21KT 10SM SCT026 OVC033 12/07 A2991
 RMK AO2 SLP125 T01220067 56011=

SPECI PACM 252104Z AUTO 11011G21KT 10SM BKN026 OVC033 12/07 A2991 RMK
     AO2=

METAR PACM 252156Z AUTO 11014G20KT 10SM BKN026 OVC034 13/07 A2989 RMK
     AO2 SLP118 T01280067=

SPECI PACM 252213Z AUTO 13014G18KT 10SM SCT026 OVC034 12/07 A2989 RMK
     AO2=

SPECI PACM 252221Z AUTO 11012G18KT 10SM BKN026 OVC034 12/07 A2988 RMK
     AO2=

METAR PACM 252256Z AUTO 11015KT 10SM SCT026 OVC036 13/07 A2988 RMK AO2
     SLP113 T01280067=

METAR PACM 252356Z AUTO 12013KT 10SM SCT027 OVC036 13/07 A2987 RMK AO2
     SLP109 T01280067 10128 20111 56016=

SPECI PACM 260011Z AUTO 12014G17KT 10SM BKN029 OVC036 13/07 A2986 RMK
     AO2=

SPECI PACM 260040Z AUTO 11013G16KT 10SM OVC031 13/07 A2985 RMK AO2=

METAR PACM 260056Z AUTO 10016G21KT 10SM BKN030 OVC037 13/07 A2984 RMK
     AO2 SLP101 T01280067=


NOAA's National Weather Service
Alaska Aviation Weather Unit
6930 Sand Lake Road
Anchorage, AK 99502-1845
Disclaimer
Credits
Glossary
Privacy Policy
About Us
Career Opportunities
Contact AAWU Internet Services Site last modified: April, 17th 2012